Time;durP1;ratioP1;P1;durP2;ratioP2;P2;SDS_P1;SDS_P2;PMS_P1;PMS_P2;Temp;Humidity;BMP_temperature;BMP_pressure;BME280_temperature;BME280_humidity;BME280_pressure;Samples;Min_cycle;Max_cycle;Signal;HPM_P1;HPM_P2
2022/09/28 00:00:07;;;;;;;0.60;0.50;;;21.90;53.80;;;;;;5047488;28;20496;-63
2022/09/28 00:02:34;;;;;;;0.93;0.55;;;21.90;53.80;;;;;;5053094;28;20059;-62
2022/09/28 00:05:01;;;;;;;0.75;0.50;;;21.90;53.80;;;;;;5059973;28;21652;-64
2022/09/28 00:07:27;;;;;;;0.40;0.32;;;21.90;53.80;;;;;;5053999;28;20424;-63
2022/09/28 00:09:53;;;;;;;0.70;0.43;;;21.90;53.80;;;;;;5053631;28;20052;-63
2022/09/28 00:12:19;;;;;;;0.30;0.30;;;21.90;53.90;;;;;;5058534;28;20457;-50
2022/09/28 00:14:45;;;;;;;1.23;0.60;;;21.90;53.80;;;;;;5053224;28;20067;-63
2022/09/28 00:17:11;;;;;;;0.68;0.50;;;21.90;53.80;;;;;;5050805;28;20056;-61
2022/09/28 00:19:38;;;;;;;0.52;0.40;;;21.90;53.80;;;;;;5053163;28;20097;-62
2022/09/28 00:22:07;;;;;;;0.65;0.40;;;21.90;53.80;;;;;;5055728;28;20032;-62
2022/09/28 00:24:33;;;;;;;0.20;0.20;;;21.90;53.80;;;;;;5052363;28;20029;-63
2022/09/28 00:27:02;;;;;;;1.02;0.30;;;21.90;53.80;;;;;;5053968;28;20033;-59
2022/09/28 00:29:32;;;;;;;0.30;0.30;;;21.80;53.70;;;;;;5051456;28;20033;-62
2022/09/28 00:32:01;;;;;;;0.40;0.30;;;21.90;53.80;;;;;;5054831;28;20040;-62
2022/09/28 00:34:36;;;;;;;0.47;0.45;;;21.90;53.80;;;;;;5044905;28;20033;-62
2022/09/28 00:37:04;;;;;;;1.58;0.50;;;21.90;53.70;;;;;;5053937;28;20033;-62
2022/09/28 00:39:34;;;;;;;0.85;0.30;;;21.90;53.80;;;;;;5052195;28;20051;-59
2022/09/28 00:42:01;;;;;;;0.35;0.30;;;21.90;53.70;;;;;;5053531;28;20040;-62
2022/09/28 00:44:32;;;;;;;0.30;0.30;;;21.90;53.70;;;;;;5052038;28;20069;-62
2022/09/28 00:47:12;;;;;;;0.30;0.20;;;21.80;53.70;;;;;;5060864;28;20427;-62
2022/09/28 00:49:58;;;;;;;0.68;0.40;;;21.90;53.80;;;;;;5051143;28;20034;-63
2022/09/28 00:52:36;;;;;;;0.40;0.40;;;21.90;53.80;;;;;;5052238;28;20040;-62
2022/09/28 00:55:06;;;;;;;1.42;0.50;;;21.90;53.70;;;;;;5052885;28;20450;-62
2022/09/28 00:57:32;;;;;;;0.50;0.30;;;21.90;53.70;;;;;;5052985;28;20039;-62
2022/09/28 01:00:00;;;;;;;0.43;0.30;;;21.90;53.80;;;;;;5053777;28;20112;-63
2022/09/28 01:02:25;;;;;;;0.57;0.40;;;21.90;53.70;;;;;;5063234;28;20052;-63
2022/09/28 01:04:52;;;;;;;0.70;0.40;;;21.80;53.70;;;;;;5052949;28;20033;-63
2022/09/28 01:07:18;;;;;;;0.40;0.40;;;21.90;54.30;;;;;;5051749;28;20071;-63
2022/09/28 01:09:44;;;;;;;0.85;0.40;;;21.90;53.70;;;;;;5051655;28;20423;-63
2022/09/28 01:12:10;;;;;;;0.30;0.30;;;21.80;53.60;;;;;;5053268;28;20477;-60
2022/09/28 01:14:38;;;;;;;0.47;0.30;;;21.90;53.70;;;;;;5046426;28;20504;-63
2022/09/28 01:17:13;;;;;;;0.45;0.30;;;21.80;53.70;;;;;;5055032;28;20028;-63
2022/09/28 01:20:04;;;;;;;0.60;0.40;;;21.90;53.70;;;;;;5051328;28;20466;-63
2022/09/28 01:22:55;;;;;;;0.32;0.32;;;21.80;53.70;;;;;;5049163;28;20040;-63
2022/09/28 01:25:43;;;;;;;0.50;0.40;;;21.80;53.70;;;;;;5055311;28;20044;-50
2022/09/28 01:28:13;;;;;;;1.33;0.40;;;21.80;53.70;;;;;;5049568;28;20021;-62
2022/09/28 01:30:48;;;;;;;0.30;0.30;;;21.80;53.60;;;;;;5052470;28;20040;-62
2022/09/28 01:33:22;;;;;;;1.45;0.30;;;21.80;53.70;;;;;;5051297;28;20492;-61
2022/09/28 01:35:56;;;;;;;0.57;0.43;;;21.80;53.60;;;;;;5064686;28;20060;-62
2022/09/28 01:38:40;;;;;;;0.38;0.30;;;21.80;53.60;;;;;;5051923;28;20039;-49
2022/09/28 01:41:07;;;;;;;0.65;0.35;;;21.80;53.60;;;;;;5060935;28;20041;-63
2022/09/28 01:43:38;;;;;;;0.90;0.30;;;21.80;53.60;;;;;;5048502;28;20053;-63
2022/09/28 01:46:20;;;;;;;1.23;0.40;;;21.80;53.70;;;;;;5052293;28;20025;-63
2022/09/28 01:49:01;;;;;;;0.38;0.30;;;21.80;53.60;;;;;;5051041;28;20088;-59
2022/09/28 01:51:36;;;;;;;0.65;0.40;;;21.80;53.70;;;;;;5050567;28;20398;-63
2022/09/28 01:54:15;;;;;;;0.30;0.30;;;21.80;53.60;;;;;;5056904;28;20039;-64
2022/09/28 01:57:10;;;;;;;1.17;0.50;;;21.80;53.70;;;;;;5052203;28;20043;-59
2022/09/28 01:59:40;;;;;;;0.70;0.30;;;21.80;53.70;;;;;;5046146;28;20045;-60
2022/09/28 02:02:14;;;;;;;1.08;0.30;;;21.80;53.70;;;;;;5058088;28;20476;-63
2022/09/28 02:05:06;;;;;;;0.52;0.30;;;21.80;53.60;;;;;;5046521;28;20059;-62
2022/09/28 02:07:55;;;;;;;0.45;0.22;;;21.80;53.60;;;;;;5039965;28;20053;-63
2022/09/28 02:10:24;;;;;;;0.55;0.35;;;21.80;53.70;;;;;;5044562;28;20040;-62
2022/09/28 02:13:03;;;;;;;1.48;0.40;;;21.80;53.60;;;;;;5050322;28;20028;-63
2022/09/28 02:15:49;;;;;;;1.10;0.55;;;21.80;53.60;;;;;;5043127;28;20035;-59
2022/09/28 02:18:14;;;;;;;1.45;0.40;;;21.80;53.70;;;;;;5050577;28;20107;-62
2022/09/28 02:20:46;;;;;;;0.38;0.30;;;21.80;53.70;;;;;;5054470;28;20497;-61
2022/09/28 02:23:12;;;;;;;1.63;0.85;;;21.80;53.60;;;;;;5047911;28;20071;-50
2022/09/28 02:25:44;;;;;;;0.60;0.40;;;21.80;53.70;;;;;;5049723;28;20370;-62
2022/09/28 02:28:12;;;;;;;0.73;0.40;;;21.80;53.70;;;;;;5056306;28;20378;-62
2022/09/28 02:30:42;;;;;;;0.60;0.30;;;21.80;53.60;;;;;;5050020;28;20040;-63
2022/09/28 02:33:13;;;;;;;0.70;0.45;;;21.80;53.60;;;;;;5052868;28;20367;-55
2022/09/28 02:35:41;;;;;;;2.45;0.40;;;21.80;53.70;;;;;;5053037;28;20134;-63
2022/09/28 02:38:06;;;;;;;1.95;0.40;;;21.80;53.60;;;;;;5051052;28;20042;-64
2022/09/28 02:40:36;;;;;;;1.00;0.40;;;21.80;53.70;;;;;;5049217;28;20032;-62
2022/09/28 02:43:24;;;;;;;0.28;0.20;;;21.80;53.60;;;;;;5060983;28;20135;-64
2022/09/28 02:45:55;;;;;;;1.58;0.30;;;21.80;53.60;;;;;;5059777;28;20485;-64
2022/09/28 02:48:25;;;;;;;1.10;0.40;;;21.80;53.60;;;;;;5052907;28;20050;-55
2022/09/28 02:51:19;;;;;;;0.55;0.20;;;21.80;53.60;;;;;;5053467;28;20037;-63
2022/09/28 02:54:10;;;;;;;1.00;0.30;;;21.80;53.70;;;;;;5049217;28;20112;-63
2022/09/28 02:57:09;;;;;;;0.30;0.30;;;21.80;53.60;;;;;;5053250;28;20037;-63
2022/09/28 03:00:13;;;;;;;0.60;0.52;;;21.80;53.60;;;;;;5038644;28;20090;-64
2022/09/28 03:02:58;;;;;;;0.85;0.43;;;21.80;53.60;;;;;;5051150;28;20037;-63
2022/09/28 03:05:49;;;;;;;1.20;0.30;;;21.80;53.60;;;;;;5024934;28;20433;-49
2022/09/28 03:08:50;;;;;;;0.70;0.40;;;21.80;53.70;;;;;;5051851;28;20405;-63
2022/09/28 03:11:21;;;;;;;0.63;0.30;;;21.80;53.60;;;;;;5052264;28;20120;-63
2022/09/28 03:13:48;;;;;;;0.65;0.35;;;21.80;53.60;;;;;;5050183;28;20029;-63
2022/09/28 03:16:17;;;;;;;0.35;0.20;;;21.80;53.60;;;;;;5049834;28;20044;-63
2022/09/28 03:18:42;;;;;;;0.57;0.32;;;21.80;53.60;;;;;;5049930;28;20416;-63
2022/09/28 03:21:10;;;;;;;0.88;0.30;;;21.80;53.60;;;;;;5048994;28;20050;-64
2022/09/28 03:23:36;;;;;;;0.47;0.30;;;21.80;53.60;;;;;;5049633;28;20064;-63
2022/09/28 03:26:02;;;;;;;1.15;0.40;;;21.80;53.60;;;;;;5056884;28;20052;-64
2022/09/28 03:28:28;;;;;;;1.13;0.40;;;21.80;53.70;;;;;;5054759;28;20032;-49
2022/09/28 03:30:54;;;;;;;0.65;0.40;;;21.80;53.60;;;;;;5051434;28;20037;-64
2022/09/28 03:33:20;;;;;;;0.65;0.40;;;21.80;53.60;;;;;;5048079;28;20075;-64
2022/09/28 03:35:48;;;;;;;0.40;0.30;;;21.80;53.70;;;;;;5051471;28;20292;-63
2022/09/28 03:38:13;;;;;;;0.47;0.28;;;21.80;53.60;;;;;;5037590;28;20021;-58
2022/09/28 03:40:39;;;;;;;1.30;1.20;;;21.70;53.60;;;;;;5056638;28;20362;-63
2022/09/28 03:43:05;;;;;;;0.95;0.40;;;21.80;53.70;;;;;;5054570;28;20469;-64
2022/09/28 03:45:30;;;;;;;0.75;0.52;;;21.80;54.10;;;;;;5055406;28;20482;-63
2022/09/28 03:47:56;;;;;;;0.45;0.30;;;21.80;53.60;;;;;;5055765;28;20458;-64
2022/09/28 03:50:22;;;;;;;1.15;0.40;;;21.80;53.60;;;;;;5054382;28;20112;-59
2022/09/28 03:52:47;;;;;;;0.30;0.30;;;21.80;53.70;;;;;;5054255;28;20020;-64
2022/09/28 03:55:13;;;;;;;3.30;0.50;;;21.80;53.70;;;;;;5051265;28;20033;-63
2022/09/28 03:57:39;;;;;;;1.08;0.40;;;21.70;53.60;;;;;;5061810;28;20033;-62
2022/09/28 04:00:05;;;;;;;0.77;0.40;;;21.80;53.60;;;;;;5054423;28;20021;-64
2022/09/28 04:02:30;;;;;;;1.33;0.40;;;21.80;53.70;;;;;;5059768;28;20052;-62
2022/09/28 04:04:56;;;;;;;0.50;0.50;;;21.80;53.70;;;;;;5057302;28;20040;-63
2022/09/28 04:07:22;;;;;;;2.33;0.57;;;21.80;53.70;;;;;;5054876;28;20029;-64
2022/09/28 04:09:47;;;;;;;1.10;0.43;;;21.80;53.70;;;;;;5056913;28;20095;-65
2022/09/28 04:12:13;;;;;;;0.80;0.50;;;21.80;53.70;;;;;;5054173;28;20087;-64
2022/09/28 04:14:38;;;;;;;2.00;0.60;;;21.80;53.70;;;;;;5051901;28;20036;-64
2022/09/28 04:17:04;;;;;;;0.90;0.40;;;21.80;53.70;;;;;;5054509;28;20476;-65
2022/09/28 04:19:30;;;;;;;0.32;0.25;;;21.80;53.60;;;;;;5055176;28;20115;-49
2022/09/28 04:21:55;;;;;;;1.13;0.40;;;21.70;53.60;;;;;;5051592;28;20041;-64
2022/09/28 04:24:21;;;;;;;0.63;0.40;;;21.80;53.70;;;;;;5053757;28;20036;-64
2022/09/28 04:26:46;;;;;;;0.82;0.40;;;21.80;53.70;;;;;;5050501;28;20260;-64
2022/09/28 04:29:15;;;;;;;1.63;0.40;;;21.80;53.70;;;;;;5058901;28;20048;-64
2022/09/28 04:31:48;;;;;;;0.45;0.40;;;21.80;54.30;;;;;;5051145;28;20481;-60
2022/09/28 04:34:17;;;;;;;0.85;0.40;;;21.80;53.70;;;;;;5046006;28;20460;-65
2022/09/28 04:36:43;;;;;;;0.30;0.30;;;21.70;53.60;;;;;;5053278;28;20039;-54
2022/09/28 04:39:13;;;;;;;0.90;0.30;;;21.80;53.80;;;;;;5052111;28;20029;-64
2022/09/28 04:41:40;;;;;;;1.60;1.17;;;21.80;53.70;;;;;;5053010;28;20124;-63
2022/09/28 04:44:06;;;;;;;0.50;0.30;;;21.80;53.70;;;;;;5064651;28;20405;-62
2022/09/28 04:46:31;;;;;;;0.30;0.30;;;21.80;53.70;;;;;;5053293;28;20028;-59
2022/09/28 04:48:57;;;;;;;0.30;0.30;;;21.80;53.70;;;;;;5052410;28;20470;-64
2022/09/28 04:51:23;;;;;;;1.33;0.35;;;21.70;53.60;;;;;;5049709;28;20024;-65
2022/09/28 04:53:49;;;;;;;0.75;0.50;;;21.70;53.60;;;;;;5056498;28;20329;-64
2022/09/28 04:56:15;;;;;;;0.55;0.30;;;21.80;53.60;;;;;;5058636;28;20032;-63
2022/09/28 04:58:41;;;;;;;1.17;0.40;;;21.70;53.60;;;;;;5058041;28;20025;-60
2022/09/28 05:01:12;;;;;;;0.50;0.30;;;21.70;53.60;;;;;;5053732;28;20037;-63
2022/09/28 05:03:38;;;;;;;1.00;0.43;;;21.70;53.60;;;;;;5052324;28;20029;-63
2022/09/28 05:06:05;;;;;;;2.15;0.47;;;21.70;53.60;;;;;;5050786;28;20025;-63
2022/09/28 05:08:31;;;;;;;0.90;0.43;;;21.70;53.60;;;;;;5056203;28;20051;-49
2022/09/28 05:11:03;;;;;;;0.50;0.30;;;21.70;53.60;;;;;;5052979;28;20056;-63
2022/09/28 05:13:31;;;;;;;0.70;0.30;;;21.70;53.60;;;;;;5052469;28;20029;-49
2022/09/28 05:15:57;;;;;;;0.47;0.25;;;21.70;53.60;;;;;;5053295;28;20067;-62
2022/09/28 05:18:23;;;;;;;3.33;0.30;;;21.70;53.60;;;;;;5056095;28;20079;-64
2022/09/28 05:20:49;;;;;;;0.30;0.30;;;21.70;53.60;;;;;;5053637;28;20608;-59
2022/09/28 05:23:15;;;;;;;0.40;0.30;;;21.70;53.60;;;;;;5045278;28;20164;-63
2022/09/28 05:25:42;;;;;;;0.40;0.30;;;21.70;53.60;;;;;;5051950;28;20047;-63
2022/09/28 05:28:08;;;;;;;0.52;0.30;;;21.70;53.60;;;;;;5057086;28;20119;-55
2022/09/28 05:30:34;;;;;;;0.93;0.60;;;21.70;53.60;;;;;;5049602;28;20108;-53
2022/09/28 05:33:00;;;;;;;1.95;0.38;;;21.70;53.60;;;;;;5043197;28;20021;-63
2022/09/28 05:35:26;;;;;;;0.82;0.30;;;21.70;53.60;;;;;;5051925;28;20032;-64
2022/09/28 05:37:53;;;;;;;2.25;0.40;;;21.70;53.70;;;;;;5051676;28;20080;-63
2022/09/28 05:40:19;;;;;;;0.65;0.30;;;21.70;53.60;;;;;;5051990;28;20513;-63
2022/09/28 05:42:44;;;;;;;1.85;0.68;;;21.80;53.70;;;;;;5050895;28;20131;-63
2022/09/28 05:45:10;;;;;;;4.93;0.73;;;21.80;53.70;;;;;;5058170;28;20045;-59
2022/09/28 05:47:37;;;;;;;0.30;0.20;;;21.80;54.60;;;;;;5053476;28;20029;-59
2022/09/28 05:50:04;;;;;;;3.13;0.45;;;21.80;54.00;;;;;;5049064;28;20105;-59
2022/09/28 05:52:30;;;;;;;3.03;0.50;;;21.80;54.10;;;;;;5051195;28;20115;-47
2022/09/28 05:54:55;;;;;;;3.13;0.63;;;21.80;54.00;;;;;;5051762;28;20426;-57
2022/09/28 05:57:21;;;;;;;4.40;0.65;;;21.80;54.20;;;;;;5063779;28;20029;-59
2022/09/28 05:59:47;;;;;;;4.95;0.50;;;21.90;54.20;;;;;;5050217;28;20061;-58
2022/09/28 06:02:12;;;;;;;3.45;0.50;;;21.90;54.30;;;;;;5051765;28;20040;-58
2022/09/28 06:04:38;;;;;;;0.90;0.60;;;21.90;54.60;;;;;;5053464;28;20043;-59
2022/09/28 06:07:03;;;;;;;1.20;0.43;;;21.90;54.70;;;;;;5050310;28;20032;-57
2022/09/28 06:09:29;;;;;;;5.03;0.57;;;21.90;55.00;;;;;;5050047;28;20530;-48
2022/09/28 06:11:58;;;;;;;1.80;0.47;;;21.90;54.80;;;;;;5058898;28;20051;-57
2022/09/28 06:14:23;;;;;;;2.05;0.98;;;21.90;55.20;;;;;;5049862;28;20037;-58
2022/09/28 06:16:49;;;;;;;2.95;0.50;;;21.90;55.00;;;;;;5049636;28;20106;-58
2022/09/28 06:19:15;;;;;;;1.48;0.60;;;21.90;54.90;;;;;;5051797;28;20033;-52
2022/09/28 06:21:40;;;;;;;3.20;0.68;;;21.90;55.00;;;;;;5054712;28;20049;-60
2022/09/28 06:24:06;;;;;;;1.50;0.52;;;21.90;54.90;;;;;;5044547;28;20033;-57
2022/09/28 06:26:32;;;;;;;2.15;0.47;;;21.90;55.10;;;;;;5051089;28;20108;-46
2022/09/28 06:28:59;;;;;;;1.63;0.50;;;21.90;55.10;;;;;;5050159;28;20071;-57
2022/09/28 06:31:25;;;;;;;3.28;0.60;;;21.90;55.80;;;;;;5050701;28;20527;-57
2022/09/28 06:33:51;;;;;;;2.58;0.60;;;21.90;55.10;;;;;;5049552;28;20037;-58
2022/09/28 06:36:19;;;;;;;2.30;0.60;;;21.90;55.30;;;;;;5051506;28;20036;-57
2022/09/28 06:38:45;;;;;;;2.47;0.50;;;21.90;55.20;;;;;;5047542;28;20096;-58
2022/09/28 06:41:11;;;;;;;4.35;0.98;;;21.90;55.20;;;;;;5051027;28;20123;-58
2022/09/28 06:43:40;;;;;;;3.13;0.60;;;22.00;55.20;;;;;;5049256;28;20494;-58
2022/09/28 06:46:08;;;;;;;1.92;0.43;;;21.90;55.20;;;;;;5051256;28;20052;-57
2022/09/28 06:48:34;;;;;;;4.60;0.90;;;21.90;55.30;;;;;;5050075;28;20039;-58
2022/09/28 06:51:00;;;;;;;2.95;0.52;;;21.90;55.30;;;;;;5049985;28;20474;-58
2022/09/28 06:53:27;;;;;;;1.75;0.43;;;21.90;55.30;;;;;;5050507;28;20025;-57
2022/09/28 06:55:54;;;;;;;4.90;1.05;;;21.90;55.50;;;;;;5050423;28;20480;-59
2022/09/28 06:58:21;;;;;;;3.72;0.70;;;21.90;55.50;;;;;;5049817;28;20454;-59
2022/09/28 07:00:49;;;;;;;2.33;0.60;;;21.90;55.40;;;;;;5050341;28;20040;-58
2022/09/28 07:03:18;;;;;;;1.40;0.70;;;21.90;55.60;;;;;;5049641;28;20215;-58
2022/09/28 07:05:47;;;;;;;3.45;0.50;;;21.90;55.50;;;;;;5049706;28;20036;-55
2022/09/28 07:08:13;;;;;;;4.63;1.85;;;21.90;55.30;;;;;;5050294;28;20028;-57
2022/09/28 07:10:47;;;;;;;3.00;0.63;;;21.90;55.40;;;;;;5049840;28;20051;-59
2022/09/28 07:13:15;;;;;;;2.60;0.60;;;21.90;55.50;;;;;;5053637;28;20029;-54
2022/09/28 07:15:42;;;;;;;3.15;0.73;;;21.90;55.40;;;;;;5050447;28;20512;-57
2022/09/28 07:18:09;;;;;;;6.97;1.58;;;21.90;55.70;;;;;;5050169;28;20048;-57
2022/09/28 07:20:36;;;;;;;2.65;0.50;;;21.90;55.60;;;;;;5049811;28;20037;-58
2022/09/28 07:23:04;;;;;;;5.35;0.50;;;21.90;55.40;;;;;;5049859;28;20470;-58
2022/09/28 07:25:31;;;;;;;1.25;0.60;;;21.90;55.40;;;;;;5049755;28;20029;-58
2022/09/28 07:27:58;;;;;;;1.60;0.60;;;21.90;55.50;;;;;;5049397;28;20060;-58
2022/09/28 07:30:26;;;;;;;7.05;0.85;;;21.90;55.50;;;;;;5048635;28;20029;-58
2022/09/28 07:32:52;;;;;;;12.43;1.38;;;21.90;55.40;;;;;;5049162;28;20273;-59
2022/09/28 07:35:18;;;;;;;7.00;0.98;;;22.00;55.50;;;;;;5049891;28;20442;-56
2022/09/28 07:37:43;;;;;;;0.90;0.50;;;21.90;55.50;;;;;;5049275;28;20064;-58
2022/09/28 07:42:54;;;;;;;1.63;0.68;;;22.00;55.60;;;;;;5049032;28;20083;-56
2022/09/28 07:45:22;;;;;;;4.55;0.93;;;21.90;55.60;;;;;;5048328;28;20025;-56
2022/09/28 07:47:48;;;;;;;1.60;0.38;;;21.90;55.60;;;;;;5048056;28;20438;-59
2022/09/28 07:50:14;;;;;;;5.78;0.98;;;22.00;55.70;;;;;;5049588;28;20067;-57
2022/09/28 07:52:39;;;;;;;1.38;0.60;;;21.90;55.60;;;;;;5048867;28;20025;-58
2022/09/28 07:55:06;;;;;;;2.85;0.60;;;22.00;55.70;;;;;;5049943;28;20489;-58
2022/09/28 07:57:32;;;;;;;0.73;0.50;;;21.90;55.60;;;;;;5050352;28;20500;-49
2022/09/28 07:59:59;;;;;;;2.25;0.40;;;21.90;55.60;;;;;;5048858;28;20043;-58
2022/09/28 08:02:25;;;;;;;2.45;0.47;;;21.90;55.60;;;;;;5049878;28;20055;-58
2022/09/28 08:04:50;;;;;;;1.48;0.47;;;21.90;55.60;;;;;;5048142;28;20041;-58
2022/09/28 08:07:17;;;;;;;1.10;0.50;;;22.00;55.60;;;;;;5049986;28;20108;-58
2022/09/28 08:09:44;;;;;;;1.65;0.50;;;21.90;55.60;;;;;;5048277;28;20032;-58
2022/09/28 08:12:11;;;;;;;0.93;0.40;;;21.90;55.60;;;;;;5049464;28;20115;-57
2022/09/28 08:14:37;;;;;;;1.10;0.43;;;21.90;55.60;;;;;;5050629;28;20468;-58
2022/09/28 08:17:05;;;;;;;2.22;0.55;;;21.90;55.50;;;;;;5051272;28;20039;-58
2022/09/28 08:21:43;;;;;;;2.25;0.75;;;21.90;55.60;;;;;;5049071;28;20041;-52
2022/09/28 08:22:17;;;;;;;1.63;0.40;;;21.90;55.60;;;;;;5049447;28;20128;-55
2022/09/28 08:24:44;;;;;;;3.50;1.38;;;21.90;56.10;;;;;;5052363;28;20029;-55
2022/09/28 08:27:10;;;;;;;3.35;0.40;;;21.90;55.50;;;;;;5053697;28;20108;-55
2022/09/28 08:29:36;;;;;;;1.92;0.38;;;21.90;55.50;;;;;;5051928;28;20037;-57
2022/09/28 08:32:06;;;;;;;0.75;0.40;;;21.90;55.40;;;;;;5053539;28;20104;-58
2022/09/28 08:34:31;;;;;;;3.10;0.80;;;21.90;55.50;;;;;;5052365;28;20119;-47
2022/09/28 08:36:58;;;;;;;0.80;0.40;;;21.90;55.50;;;;;;5052345;28;20108;-58
2022/09/28 08:39:23;;;;;;;0.75;0.55;;;21.90;55.40;;;;;;5052860;28;20100;-59
2022/09/28 08:42:14;;;;;;;2.35;0.85;;;21.90;55.40;;;;;;5053023;28;20033;-58
2022/09/28 08:44:51;;;;;;;1.13;0.50;;;21.90;55.30;;;;;;5051540;28;20482;-56
2022/09/28 08:50:44;;;;;;;1.10;0.70;;;21.90;55.40;;;;;;5049516;28;20031;-47
2022/09/28 08:53:33;;;;;;;0.98;0.60;;;21.90;55.30;;;;;;5051281;28;20029;-53
2022/09/28 08:56:05;;;;;;;1.17;0.57;;;21.90;55.30;;;;;;5052278;28;20036;-59
2022/09/28 08:58:34;;;;;;;1.65;0.52;;;21.90;55.40;;;;;;5034637;28;20394;-59
2022/09/28 09:01:01;;;;;;;2.70;0.50;;;22.00;55.40;;;;;;5052525;28;20051;-58
2022/09/28 09:03:35;;;;;;;0.80;0.45;;;21.90;55.30;;;;;;5046015;28;20178;-58
2022/09/28 09:06:10;;;;;;;1.38;0.57;;;21.90;55.30;;;;;;5052645;28;20037;-59
2022/09/28 09:08:39;;;;;;;2.70;0.40;;;21.90;55.40;;;;;;5051014;28;20229;-47
2022/09/28 09:11:43;;;;;;;0.85;0.52;;;22.00;55.30;;;;;;5052266;28;20040;-58
2022/09/28 09:14:27;;;;;;;1.73;1.10;;;21.90;55.30;;;;;;5050512;28;20033;-55
2022/09/28 09:16:54;;;;;;;1.75;0.45;;;21.90;55.30;;;;;;5047825;28;20025;-54
2022/09/28 09:19:38;;;;;;;1.17;0.70;;;21.90;55.30;;;;;;5051433;28;20025;-58
2022/09/28 09:22:14;;;;;;;1.05;0.50;;;21.90;55.20;;;;;;5049748;28;20128;-59
2022/09/28 09:25:19;;;;;;;1.02;0.60;;;21.90;55.30;;;;;;5050978;28;20029;-58
2022/09/28 09:28:05;;;;;;;1.98;0.95;;;21.90;55.20;;;;;;4992917;28;20037;-59
2022/09/28 09:30:57;;;;;;;0.57;0.50;;;21.90;55.20;;;;;;5033366;28;20448;-58
2022/09/28 09:33:56;;;;;;;2.38;0.45;;;21.90;55.90;;;;;;5031679;28;20037;-59
2022/09/28 09:36:39;;;;;;;1.40;0.60;;;21.90;55.20;;;;;;4957583;28;20542;-59
2022/09/28 09:39:26;;;;;;;2.00;0.40;;;22.00;55.30;;;;;;5051347;28;20067;-59
2022/09/28 09:42:07;;;;;;;1.75;0.57;;;21.90;55.20;;;;;;5051012;28;20112;-59
2022/09/28 09:45:00;;;;;;;1.23;0.40;;;21.90;55.10;;;;;;5051068;28;20068;-59
2022/09/28 09:47:35;;;;;;;2.28;0.55;;;21.90;55.10;;;;;;5051591;28;20032;-59
2022/09/28 09:50:32;;;;;;;0.93;0.60;;;21.90;55.10;;;;;;5051536;28;20036;-57
2022/09/28 09:53:31;;;;;;;1.27;0.60;;;21.90;55.00;;;;;;5047799;28;20041;-58
2022/09/28 09:56:13;;;;;;;0.85;0.50;;;21.90;55.00;;;;;;5049198;28;20442;-59
2022/09/28 09:59:09;;;;;;;1.30;0.50;;;22.00;55.30;;;;;;5050756;28;20035;-58
2022/09/28 10:01:38;;;;;;;1.77;0.40;;;22.00;55.20;;;;;;5014687;28;20509;-48
2022/09/28 10:04:09;;;;;;;2.13;1.08;;;22.00;55.30;;;;;;5051283;28;20033;-59
2022/09/28 10:06:37;;;;;;;1.00;0.30;;;22.00;55.30;;;;;;5050700;28;20029;-47
2022/09/28 10:09:08;;;;;;;1.15;0.50;;;22.00;55.20;;;;;;5051240;28;20100;-59
2022/09/28 10:11:42;;;;;;;1.17;0.40;;;21.90;55.20;;;;;;5050467;28;20041;-47
2022/09/28 10:14:15;;;;;;;1.50;0.50;;;21.90;55.10;;;;;;5050563;28;20033;-58
2022/09/28 10:16:43;;;;;;;1.30;0.40;;;21.90;55.20;;;;;;5050691;28;20041;-57
2022/09/28 10:19:12;;;;;;;1.23;0.50;;;21.90;55.10;;;;;;5049937;28;20025;-59
2022/09/28 10:21:39;;;;;;;0.75;0.60;;;21.90;55.20;;;;;;5050534;28;20052;-48
2022/09/28 10:24:10;;;;;;;0.73;0.40;;;21.90;55.10;;;;;;5046523;28;20436;-59
2022/09/28 10:26:43;;;;;;;0.88;0.50;;;21.90;55.10;;;;;;5051058;28;20029;-47
2022/09/28 10:29:16;;;;;;;2.47;0.55;;;21.90;55.00;;;;;;5049930;28;20050;-53
2022/09/28 10:31:50;;;;;;;1.42;0.68;;;21.90;55.00;;;;;;5045822;28;20439;-58
2022/09/28 10:34:23;;;;;;;1.13;0.60;;;21.90;55.10;;;;;;5050716;28;20029;-59
2022/09/28 10:36:49;;;;;;;1.42;0.57;;;21.90;55.10;;;;;;5050116;28;20090;-56
2022/09/28 10:39:36;;;;;;;1.40;0.60;;;21.90;55.10;;;;;;5049378;28;20041;-57
2022/09/28 10:42:10;;;;;;;2.20;0.70;;;21.90;55.10;;;;;;5050562;28;20048;-58
2022/09/28 10:44:55;;;;;;;1.15;0.40;;;21.90;55.00;;;;;;5050217;28;20037;-47
2022/09/28 10:47:23;;;;;;;2.38;1.08;;;21.90;55.00;;;;;;5050002;28;20029;-55
2022/09/28 10:49:51;;;;;;;1.25;0.70;;;21.90;55.00;;;;;;5049672;28;20107;-58
2022/09/28 10:52:33;;;;;;;1.35;0.45;;;22.00;54.90;;;;;;5050627;28;20037;-58
2022/09/28 10:54:59;;;;;;;;;;;21.90;54.90;;;;;;5050071;28;20104;-58
2022/09/28 10:57:35;;;;;;;0.70;0.40;;;21.90;54.90;;;;;;5050850;28;20366;-57
2022/09/28 11:00:05;;;;;;;1.15;0.40;;;21.90;54.90;;;;;;5049612;28;20061;-58
2022/09/28 11:02:38;;;;;;;2.00;0.68;;;22.00;54.90;;;;;;5050747;28;20133;-58
2022/09/28 11:05:06;;;;;;;1.65;0.70;;;22.00;54.90;;;;;;5049800;28;20120;-58
2022/09/28 11:07:42;;;;;;;2.97;0.85;;;22.00;54.90;;;;;;5050384;28;20044;-57
2022/09/28 11:10:20;;;;;;;2.45;0.68;;;22.00;54.90;;;;;;5050224;28;20032;-58
2022/09/28 11:12:48;;;;;;;0.57;0.30;;;22.00;54.90;;;;;;5045172;28;20041;-58
2022/09/28 11:15:38;;;;;;;1.40;0.68;;;21.90;54.80;;;;;;5049013;28;20032;-58
2022/09/28 11:18:31;;;;;;;0.95;0.60;;;21.90;54.80;;;;;;5042815;28;20061;-58
2022/09/28 11:21:14;;;;;;;1.10;0.50;;;22.00;54.90;;;;;;5038801;28;20045;-57
2022/09/28 11:23:41;;;;;;;1.42;0.57;;;22.00;54.90;;;;;;5046225;28;20099;-49
2022/09/28 11:26:08;;;;;;;0.98;0.50;;;22.00;54.80;;;;;;5050400;28;20504;-58
2022/09/28 11:28:38;;;;;;;1.25;0.60;;;21.90;54.80;;;;;;5049928;28;20140;-58
2022/09/28 11:31:06;;;;;;;1.75;0.80;;;21.90;51.80;;;;;;5050280;28;20036;-58
2022/09/28 11:33:35;;;;;;;3.70;1.02;;;21.90;47.90;;;;;;5049748;28;20035;-57
2022/09/28 11:36:12;;;;;;;1.02;0.65;;;22.00;47.00;;;;;;5049874;28;20583;-58
2022/09/28 11:39:16;;;;;;;5.35;1.10;;;21.90;48.10;;;;;;5048857;28;20075;-48
2022/09/28 11:41:44;;;;;;;2.05;0.50;;;22.00;48.90;;;;;;5047365;28;20051;-58
2022/09/28 11:44:22;;;;;;;2.22;0.63;;;22.00;51.70;;;;;;5047302;28;20507;-58
2022/09/28 11:47:09;;;;;;;2.78;0.80;;;22.00;52.20;;;;;;5049278;28;20025;-58
2022/09/28 11:49:46;;;;;;;2.75;0.70;;;22.00;52.00;;;;;;5049606;28;20029;-59
2022/09/28 11:52:21;;;;;;;1.35;0.68;;;22.00;51.70;;;;;;5050421;28;20029;-58
2022/09/28 11:55:09;;;;;;;1.42;0.70;;;22.00;52.40;;;;;;5048799;28;20029;-58
2022/09/28 11:57:38;;;;;;;1.90;0.60;;;22.00;52.60;;;;;;5051544;28;20075;-58
2022/09/28 12:00:12;;;;;;;3.03;0.75;;;22.00;52.70;;;;;;5052947;28;20021;-59
2022/09/28 12:02:47;;;;;;;1.17;0.75;;;22.00;52.80;;;;;;5053810;28;20045;-47
2022/09/28 12:05:30;;;;;;;1.77;0.65;;;22.00;52.90;;;;;;5052949;28;20458;-58
2022/09/28 12:08:01;;;;;;;2.30;0.70;;;22.00;53.00;;;;;;5053285;28;20036;-59
2022/09/28 12:10:50;;;;;;;3.72;0.70;;;22.00;53.00;;;;;;5052946;28;20017;-58
2022/09/28 12:13:21;;;;;;;1.95;0.60;;;22.00;53.40;;;;;;5034729;28;20029;-52
2022/09/28 12:16:01;;;;;;;1.73;0.60;;;22.00;53.30;;;;;;5052041;28;20033;-59
2022/09/28 12:18:40;;;;;;;1.52;0.70;;;22.00;53.10;;;;;;5053698;28;20276;-59
2022/09/28 12:21:26;;;;;;;2.45;0.68;;;22.00;53.20;;;;;;5053476;28;20060;-55
2022/09/28 12:24:02;;;;;;;2.47;0.80;;;22.00;53.40;;;;;;5051734;28;20025;-59
2022/09/28 12:27:08;;;;;;;0.43;0.32;;;22.00;53.40;;;;;;5051502;28;20029;-58
2022/09/28 12:29:42;;;;;;;0.95;0.52;;;22.00;53.50;;;;;;4985453;28;20046;-58
2022/09/28 12:32:25;;;;;;;1.02;0.60;;;22.00;53.60;;;;;;5041895;28;20056;-58
2022/09/28 12:34:50;;;;;;;1.38;0.60;;;22.00;53.70;;;;;;5051900;28;20055;-58
2022/09/28 12:37:44;;;;;;;1.42;0.60;;;22.00;53.70;;;;;;5053402;28;20025;-57
2022/09/28 12:40:25;;;;;;;3.33;0.57;;;22.00;53.70;;;;;;5052004;28;20541;-57
2022/09/28 12:43:04;;;;;;;1.10;0.55;;;22.00;53.60;;;;;;5051942;28;20056;-59
2022/09/28 12:45:49;;;;;;;1.52;0.60;;;22.00;53.90;;;;;;5048837;28;20445;-55
2022/09/28 12:48:23;;;;;;;1.52;0.57;;;22.00;53.70;;;;;;5049947;28;20032;-57
2022/09/28 12:51:04;;;;;;;1.30;0.60;;;22.00;53.80;;;;;;5049325;28;20026;-58
2022/09/28 12:53:48;;;;;;;0.73;0.60;;;22.00;53.70;;;;;;5046617;28;20090;-59
2022/09/28 12:56:40;;;;;;;0.90;0.50;;;22.00;53.70;;;;;;5052774;28;20075;-58
2022/09/28 12:59:05;;;;;;;;;;;22.00;53.70;;;;;;5052145;28;20112;-58
2022/09/28 13:02:00;;;;;;;0.98;0.63;;;22.00;53.70;;;;;;5053049;28;20007;-58
2022/09/28 13:04:44;;;;;;;2.88;1.75;;;22.00;53.60;;;;;;5051948;28;20040;-58
2022/09/28 13:07:10;;;;;;;0.90;0.63;;;22.00;53.60;;;;;;5051926;28;20390;-58
2022/09/28 13:10:01;;;;;;;1.23;0.52;;;22.00;53.70;;;;;;5050961;28;20021;-58
2022/09/28 13:12:42;;;;;;;1.17;0.50;;;22.00;53.60;;;;;;5052353;28;20029;-59
2022/09/28 13:15:26;;;;;;;2.45;0.73;;;22.00;53.80;;;;;;5051774;28;20107;-58
2022/09/28 13:18:11;;;;;;;1.48;0.60;;;22.00;53.50;;;;;;5052290;28;20191;-59
2022/09/28 13:20:39;;;;;;;0.80;0.57;;;22.00;53.60;;;;;;5052405;28;20041;-57